Wavelength — 2BKW6 — position and weather

sailwx.info

Track history (hours):
 
Tides and Currents Weather Stations Pressure Air Temp Water Temp Dewpoint Dewpoint Depression Visibility Wind Speed Wind Dir Waves Ship Positions

Wavelength

Last reported at 2017-Oct-13 06:54 UTC. Time now 2017-Oct-18 07:58 UTC.
Position N 37°28' E 025°20'.

Length 14 m; draft 2 m.

Type: Sailing vessel. MMSI: 235067012.

Date/timePositionNaut miles runAvg speedWind from/ knotsBaromVisibWave heightAir tempDewpointWater temp
2017-Oct-13 06:54N 37°28' E 025°20'0 0.0
2017-Oct-13 06:28N 37°28' E 025°20'1 2.8
2017-Oct-13 06:00N 37°28' E 025°18'3 6.0
2017-Oct-13 05:30N 37°30' E 025°15'3 5.7
2017-Oct-13 05:00N 37°31' E 025°11'2 3.8
2017-Oct-13 04:30N 37°32' E 025°10'  
2017-Oct-10 14:00N 37°51' E 024°47'18 5.0
2017-Oct-10 10:22N 37°44' E 024°26'2 5.7
2017-Oct-10 10:00N 37°45' E 024°24'3 5.5
2017-Oct-10 09:30N 37°45' E 024°20'2 4.1
2017-Oct-10 09:00N 37°46' E 024°18'2 3.1
2017-Oct-10 08:30N 37°45' E 024°16'2 3.3
2017-Oct-10 08:00N 37°46' E 024°14'2 4.2
2017-Oct-10 07:30N 37°46' E 024°11'3 5.8
2017-Oct-10 07:00N 37°45' E 024°08'2 4.3
2017-Oct-10 06:30N 37°43' E 024°06'2 0.1
2017-Oct-09 09:15N 37°43' E 024°03'0 0.0
2017-Oct-09 09:00N 37°43' E 024°03'1 2.5
2017-Oct-09 08:30N 37°43' E 024°05'2 3.1
2017-Oct-09 08:01N 37°44' E 024°06'2 3.2
2017-Oct-09 07:30N 37°45' E 024°08'2 3.2
2017-Oct-09 07:00N 37°45' E 024°10'2 4.0
2017-Oct-09 06:30N 37°44' E 024°12'3 6.2
2017-Oct-09 06:00N 37°42' E 024°15'3 6.2
2017-Oct-09 05:30N 37°40' E 024°18'  
2017-Oct-04 17:21N 37°40' E 024°19'0 0.2
2017-Oct-04 16:51N 37°40' E 024°19'0 0.2
2017-Oct-04 16:30N 37°40' E 024°19'2 3.7
2017-Oct-04 16:00N 37°39' E 024°17'2 4.1
2017-Oct-04 15:30N 37°38' E 024°14'3 5.6
2017-Oct-04 15:00N 37°38' E 024°11'3 5.9
2017-Oct-04 14:30N 37°38' E 024°07'3 5.8
2017-Oct-04 14:00N 37°38' E 024°03'3 6.4
2017-Oct-04 13:30N 37°38' E 023°59'2 4.0
2017-Oct-04 13:00N 37°38' E 023°57'3 6.0
2017-Oct-04 12:30N 37°38' E 023°53'2 4.0
2017-Oct-04 12:00N 37°39' E 023°50'1 3.0
2017-Oct-04 11:30N 37°39' E 023°49'2 3.0
2017-Oct-04 11:00N 37°39' E 023°47'4 2.8
2017-Oct-04 09:41N 37°39' E 023°42'1 4.1
2017-Oct-04 09:30N 37°39' E 023°41'2 4.3
2017-Oct-04 09:00N 37°40' E 023°39'3 5.2
2017-Oct-04 08:30N 37°40' E 023°35'  
Track history (hours):
 
Tides and Currents Weather Stations Pressure Air Temp Water Temp Dewpoint Dewpoint Depression Visibility Wind Speed Wind Dir Waves Ship Positions

Wavelength

Last reported at 2017-Oct-13 06:54 UTC. Time now 2017-Oct-18 07:58 UTC.
Position N 37°28' E 025°20'.

Length 14 m; draft 2 m.

Type: Sailing vessel. MMSI: 235067012.

Date/timePositionNaut miles runAvg speedWind from/ knotsBaromVisibWave heightAir tempDewpointWater temp
2017-Oct-13 06:54N 37°28' E 025°20'0 0.0
2017-Oct-13 06:28N 37°28' E 025°20'1 2.8
2017-Oct-13 06:00N 37°28' E 025°18'3 6.0
2017-Oct-13 05:30N 37°30' E 025°15'3 5.7
2017-Oct-13 05:00N 37°31' E 025°11'2 3.8
2017-Oct-13 04:30N 37°32' E 025°10'  
2017-Oct-10 14:00N 37°51' E 024°47'18 5.0
2017-Oct-10 10:22N 37°44' E 024°26'2 5.7
2017-Oct-10 10:00N 37°45' E 024°24'3 5.5
2017-Oct-10 09:30N 37°45' E 024°20'2 4.1
2017-Oct-10 09:00N 37°46' E 024°18'2 3.1
2017-Oct-10 08:30N 37°45' E 024°16'2 3.3
2017-Oct-10 08:00N 37°46' E 024°14'2 4.2
2017-Oct-10 07:30N 37°46' E 024°11'3 5.8
2017-Oct-10 07:00N 37°45' E 024°08'2 4.3
2017-Oct-10 06:30N 37°43' E 024°06'2 0.1
2017-Oct-09 09:15N 37°43' E 024°03'0 0.0
2017-Oct-09 09:00N 37°43' E 024°03'1 2.5
2017-Oct-09 08:30N 37°43' E 024°05'2 3.1
2017-Oct-09 08:01N 37°44' E 024°06'2 3.2
2017-Oct-09 07:30N 37°45' E 024°08'2 3.2
2017-Oct-09 07:00N 37°45' E 024°10'2 4.0
2017-Oct-09 06:30N 37°44' E 024°12'3 6.2
2017-Oct-09 06:00N 37°42' E 024°15'3 6.2
2017-Oct-09 05:30N 37°40' E 024°18'  
2017-Oct-04 17:21N 37°40' E 024°19'0 0.2
2017-Oct-04 16:51N 37°40' E 024°19'0 0.2
2017-Oct-04 16:30N 37°40' E 024°19'2 3.7
2017-Oct-04 16:00N 37°39' E 024°17'2 4.1
2017-Oct-04 15:30N 37°38' E 024°14'3 5.6
2017-Oct-04 15:00N 37°38' E 024°11'3 5.9
2017-Oct-04 14:30N 37°38' E 024°07'3 5.8
2017-Oct-04 14:00N 37°38' E 024°03'3 6.4
2017-Oct-04 13:30N 37°38' E 023°59'2 4.0
2017-Oct-04 13:00N 37°38' E 023°57'3 6.0
2017-Oct-04 12:30N 37°38' E 023°53'2 4.0
2017-Oct-04 12:00N 37°39' E 023°50'1 3.0
2017-Oct-04 11:30N 37°39' E 023°49'2 3.0
2017-Oct-04 11:00N 37°39' E 023°47'4 2.8
2017-Oct-04 09:41N 37°39' E 023°42'1 4.1
2017-Oct-04 09:30N 37°39' E 023°41'2 4.3
2017-Oct-04 09:00N 37°40' E 023°39'3 5.2
2017-Oct-04 08:30N 37°40' E 023°35'  

Dump ship's entire track history